Gold Beach, OR (97444)

7:03 PM PDT on April 25, 2015 (GMT -0700)
RAWS | | Change Station
CLOSE
Current Station
Personal Weather Station
Location: Gold Beach, OR
Elevation: 1542 ft
Nearby Weather Stations

Elev 1542 ft 42.40 °N, 124.38 °W | Updated 50 minutes ago

Overcast
Overcast
48 °F
Feels Like 48 °F
N
3
Wind Variable Wind from NW
Gusts 11.0 mph

Today
High -- | Low -- °F
--% Chance of Precip.
Yesterday
High -- | Low -- °F
Precip. -- in
6:21 AM 8:10 PM
Waxing Crescent, 51% visible
Pressure 30.11 in
Visibility 8.0 miles
Clouds Scattered Clouds 11000 ft
Windchill 48 °F
Dew Point 39 °F
Humidity 72%
Rainfall in
Snow Depth Not available.
UV 1 out of 12
Pollen 5.20 out of 12
Air Quality Not available.
Flu Activity Sporadic
METAR KBOK 260156Z AUTO 00000KT 8SM SCT110 12/09 A3010 RMK AO2 T01160088 SLP194

More Conditions Fewer Conditions

Pressure 30.11 in
Visibility 8.0 miles
Clouds Scattered Clouds 11000 ft
Windchill 48 °F
Dew Point 39 °F
Humidity 72%
Rainfall in
Snow Depth Not available.
UV 1 out of 12
Pollen 5.20 out of 12
Air Quality Not available.
Flu Activity Sporadic
METAR KBOK 260156Z AUTO 00000KT 8SM SCT110 12/09 A3010 RMK AO2 T01160088 SLP194

More Conditions Fewer Conditions

10-Day Weather Forecast

Almanac

Astronomy

Apr. 25, 2015 Rise Set
Actual Time
Civil Twilight
Nautical Twilight
Astronomical Twilight
Moon
Length of Visible Light
Length of Day
Tomorrow will be .
, % of the Moon is Illuminated

Today's Extremes

State Highs State Lows

Community

WunderPhotos

Upload Photos

1,816,899 photos uploaded!

WunderBlogs® & News

Nearby

Air Quality

  Air Quality AQ Index Pollutant
Not available.

Snow Depth

Station Depth Elevation

Earthquake Activity

City Distance Mag. Time & Date
Minimum magnitude displayed is 2.5.

Coastal Water Temperatures

Place Temperature

Stations

Nearby Weather Stations

Station Location Temp. Windchill Dew Point Humidity Wind Precip. Elev Updated Type